sensor_id;sensor_type;location;lat;lon;timestamp;pressure;altitude;pressure_sealevel;temperature;humidity
58373;BME280;44177;43.356;27.672;2023-08-30T00:00:19;97173.47;;;21.71;74.27
58373;BME280;44177;43.356;27.672;2023-08-30T00:02:48;97173.47;;;21.71;75.40
58373;BME280;44177;43.356;27.672;2023-08-30T00:05:13;97169.38;;;21.76;78.07
58373;BME280;44177;43.356;27.672;2023-08-30T00:07:39;97167.03;;;21.74;79.40
58373;BME280;44177;43.356;27.672;2023-08-30T00:10:07;97175.44;;;21.84;78.59
58373;BME280;44177;43.356;27.672;2023-08-30T00:12:33;97166.88;;;21.91;78.78
58373;BME280;44177;43.356;27.672;2023-08-30T00:14:58;97175.09;;;21.95;78.93
58373;BME280;44177;43.356;27.672;2023-08-30T00:17:23;97168.00;;;21.93;79.53
58373;BME280;44177;43.356;27.672;2023-08-30T00:19:50;97170.56;;;21.88;79.05
58373;BME280;44177;43.356;27.672;2023-08-30T00:22:15;97183.22;;;21.89;79.70
58373;BME280;44177;43.356;27.672;2023-08-30T00:24:41;97169.00;;;21.87;80.11
58373;BME280;44177;43.356;27.672;2023-08-30T00:27:06;97178.44;;;21.89;80.02
58373;BME280;44177;43.356;27.672;2023-08-30T00:29:31;97179.66;;;21.88;79.78
58373;BME280;44177;43.356;27.672;2023-08-30T00:31:57;97174.66;;;21.96;81.81
58373;BME280;44177;43.356;27.672;2023-08-30T00:34:22;97175.22;;;21.91;81.19
58373;BME280;44177;43.356;27.672;2023-08-30T00:36:48;97151.16;;;21.75;79.93
58373;BME280;44177;43.356;27.672;2023-08-30T00:39:13;97164.34;;;21.84;80.38
58373;BME280;44177;43.356;27.672;2023-08-30T00:41:39;97168.13;;;21.90;80.51
58373;BME280;44177;43.356;27.672;2023-08-30T00:44:05;97168.13;;;21.90;80.53
58373;BME280;44177;43.356;27.672;2023-08-30T00:46:32;97163.59;;;21.83;79.68
58373;BME280;44177;43.356;27.672;2023-08-30T00:48:59;97161.78;;;21.89;82.10
58373;BME280;44177;43.356;27.672;2023-08-30T00:51:25;97150.38;;;21.74;82.48
58373;BME280;44177;43.356;27.672;2023-08-30T00:53:51;97160.34;;;21.85;83.80
58373;BME280;44177;43.356;27.672;2023-08-30T00:56:19;97167.56;;;21.82;82.63
58373;BME280;44177;43.356;27.672;2023-08-30T00:58:45;97151.28;;;21.71;82.51
58373;BME280;44177;43.356;27.672;2023-08-30T01:01:11;97165.00;;;21.88;83.30
58373;BME280;44177;43.356;27.672;2023-08-30T01:03:39;97165.22;;;21.93;84.73
58373;BME280;44177;43.356;27.672;2023-08-30T01:06:04;97163.56;;;21.96;84.44
58373;BME280;44177;43.356;27.672;2023-08-30T01:08:30;97162.63;;;21.99;85.08
58373;BME280;44177;43.356;27.672;2023-08-30T01:13:46;97165.66;;;21.92;82.94
58373;BME280;44177;43.356;27.672;2023-08-30T01:16:13;97168.66;;;21.98;83.73
58373;BME280;44177;43.356;27.672;2023-08-30T01:18:40;97162.00;;;21.95;83.45
58373;BME280;44177;43.356;27.672;2023-08-30T01:21:11;97176.75;;;21.92;82.64
58373;BME280;44177;43.356;27.672;2023-08-30T01:23:49;97174.56;;;21.87;82.41
58373;BME280;44177;43.356;27.672;2023-08-30T01:29:23;97180.03;;;21.77;82.46
58373;BME280;44177;43.356;27.672;2023-08-30T01:31:49;97170.25;;;21.73;84.14
58373;BME280;44177;43.356;27.672;2023-08-30T01:34:16;97182.22;;;21.83;84.39
58373;BME280;44177;43.356;27.672;2023-08-30T01:36:42;97179.13;;;21.81;84.25
58373;BME280;44177;43.356;27.672;2023-08-30T01:39:10;97176.34;;;21.81;84.28
58373;BME280;44177;43.356;27.672;2023-08-30T01:41:37;97177.00;;;21.85;85.59
58373;BME280;44177;43.356;27.672;2023-08-30T01:44:05;97181.00;;;21.84;86.09
58373;BME280;44177;43.356;27.672;2023-08-30T01:46:33;97181.78;;;21.84;85.12
58373;BME280;44177;43.356;27.672;2023-08-30T01:49:01;97182.44;;;21.88;86.18
58373;BME280;44177;43.356;27.672;2023-08-30T01:51:28;97174.56;;;21.87;86.65
58373;BME280;44177;43.356;27.672;2023-08-30T01:53:55;97172.25;;;21.85;89.96
58373;BME280;44177;43.356;27.672;2023-08-30T01:56:22;97177.56;;;21.92;91.84
58373;BME280;44177;43.356;27.672;2023-08-30T01:58:48;97173.88;;;21.96;94.55
58373;BME280;44177;43.356;27.672;2023-08-30T02:01:13;97172.66;;;21.97;96.62
58373;BME280;44177;43.356;27.672;2023-08-30T02:03:39;97170.31;;;21.95;98.19
58373;BME280;44177;43.356;27.672;2023-08-30T02:11:52;97164.28;;;22.09;97.60
58373;BME280;44177;43.356;27.672;2023-08-30T02:14:20;97171.03;;;22.21;96.60
58373;BME280;44177;43.356;27.672;2023-08-30T02:16:46;97168.38;;;22.18;96.65
58373;BME280;44177;43.356;27.672;2023-08-30T02:19:12;97164.94;;;22.14;100.00
58373;BME280;44177;43.356;27.672;2023-08-30T02:21:42;97173.34;;;22.23;100.00
58373;BME280;44177;43.356;27.672;2023-08-30T02:24:08;97168.00;;;22.29;100.00
58373;BME280;44177;43.356;27.672;2023-08-30T02:26:34;97169.09;;;22.31;100.00
58373;BME280;44177;43.356;27.672;2023-08-30T02:28:59;97167.28;;;22.37;100.00
58373;BME280;44177;43.356;27.672;2023-08-30T02:31:24;97161.66;;;22.41;100.00
58373;BME280;44177;43.356;27.672;2023-08-30T02:33:50;97167.06;;;22.45;100.00
58373;BME280;44177;43.356;27.672;2023-08-30T02:36:15;97156.38;;;22.43;100.00
58373;BME280;44177;43.356;27.672;2023-08-30T02:38:41;97151.28;;;22.42;100.00
58373;BME280;44177;43.356;27.672;2023-08-30T02:41:06;97157.41;;;22.36;100.00
58373;BME280;44177;43.356;27.672;2023-08-30T02:43:31;97147.53;;;22.35;100.00
58373;BME280;44177;43.356;27.672;2023-08-30T02:45:57;97137.31;;;22.32;100.00
58373;BME280;44177;43.356;27.672;2023-08-30T02:48:22;97140.41;;;22.34;100.00
58373;BME280;44177;43.356;27.672;2023-08-30T02:50:48;97140.41;;;22.34;100.00
58373;BME280;44177;43.356;27.672;2023-08-30T02:53:13;97144.41;;;22.33;100.00
58373;BME280;44177;43.356;27.672;2023-08-30T02:55:39;97143.25;;;22.21;100.00
58373;BME280;44177;43.356;27.672;2023-08-30T02:58:04;97136.91;;;22.21;100.00
58373;BME280;44177;43.356;27.672;2023-08-30T03:00:30;97140.66;;;22.27;100.00
58373;BME280;44177;43.356;27.672;2023-08-30T03:02:55;97143.19;;;22.34;100.00
58373;BME280;44177;43.356;27.672;2023-08-30T03:05:21;97145.63;;;22.32;100.00
58373;BME280;44177;43.356;27.672;2023-08-30T03:07:46;97151.19;;;22.32;100.00
58373;BME280;44177;43.356;27.672;2023-08-30T03:10:12;97151.78;;;22.27;100.00
58373;BME280;44177;43.356;27.672;2023-08-30T03:12:37;97145.06;;;22.15;100.00
58373;BME280;44177;43.356;27.672;2023-08-30T03:15:03;97147.56;;;22.22;100.00
58373;BME280;44177;43.356;27.672;2023-08-30T03:17:30;97147.69;;;22.19;100.00
58373;BME280;44177;43.356;27.672;2023-08-30T03:19:56;97156.16;;;22.15;100.00
58373;BME280;44177;43.356;27.672;2023-08-30T03:22:21;97144.94;;;22.19;100.00
58373;BME280;44177;43.356;27.672;2023-08-30T03:24:47;97140.59;;;22.18;100.00
58373;BME280;44177;43.356;27.672;2023-08-30T03:27:12;97151.91;;;22.23;100.00
58373;BME280;44177;43.356;27.672;2023-08-30T03:29:38;97152.13;;;22.29;100.00
58373;BME280;44177;43.356;27.672;2023-08-30T03:32:04;97158.94;;;22.37;100.00
58373;BME280;44177;43.356;27.672;2023-08-30T03:34:29;97158.63;;;22.35;100.00
58373;BME280;44177;43.356;27.672;2023-08-30T03:36:55;97156.84;;;22.42;100.00
58373;BME280;44177;43.356;27.672;2023-08-30T03:39:21;97165.94;;;22.42;100.00
58373;BME280;44177;43.356;27.672;2023-08-30T03:41:46;97155.97;;;22.45;100.00
58373;BME280;44177;43.356;27.672;2023-08-30T03:44:12;97161.34;;;22.26;100.00
58373;BME280;44177;43.356;27.672;2023-08-30T03:46:37;97169.88;;;22.32;100.00
58373;BME280;44177;43.356;27.672;2023-08-30T03:49:03;97162.97;;;22.36;100.00
58373;BME280;44177;43.356;27.672;2023-08-30T03:51:29;97170.75;;;22.42;100.00
58373;BME280;44177;43.356;27.672;2023-08-30T03:53:54;97169.38;;;22.46;100.00
58373;BME280;44177;43.356;27.672;2023-08-30T03:56:22;97164.59;;;22.47;100.00
58373;BME280;44177;43.356;27.672;2023-08-30T03:58:47;97159.97;;;22.44;100.00
58373;BME280;44177;43.356;27.672;2023-08-30T04:01:13;97169.06;;;22.44;100.00
58373;BME280;44177;43.356;27.672;2023-08-30T04:03:38;97169.72;;;22.48;100.00
58373;BME280;44177;43.356;27.672;2023-08-30T04:06:04;97180.50;;;22.46;100.00
58373;BME280;44177;43.356;27.672;2023-08-30T04:08:30;97176.94;;;22.46;100.00
58373;BME280;44177;43.356;27.672;2023-08-30T04:10:55;97187.81;;;22.53;100.00
58373;BME280;44177;43.356;27.672;2023-08-30T04:13:21;97195.63;;;22.67;100.00
58373;BME280;44177;43.356;27.672;2023-08-30T04:15:47;97191.63;;;22.68;100.00
58373;BME280;44177;43.356;27.672;2023-08-30T04:18:13;97204.03;;;22.77;100.00
58373;BME280;44177;43.356;27.672;2023-08-30T04:20:44;97202.09;;;22.64;100.00
58373;BME280;44177;43.356;27.672;2023-08-30T04:23:10;97201.19;;;22.67;100.00
58373;BME280;44177;43.356;27.672;2023-08-30T04:25:36;97204.16;;;22.73;100.00
58373;BME280;44177;43.356;27.672;2023-08-30T04:28:02;97212.38;;;22.77;100.00
58373;BME280;44177;43.356;27.672;2023-08-30T04:30:28;97211.78;;;22.82;100.00
58373;BME280;44177;43.356;27.672;2023-08-30T04:32:53;97210.88;;;22.85;100.00
58373;BME280;44177;43.356;27.672;2023-08-30T04:35:19;97216.06;;;22.96;100.00
58373;BME280;44177;43.356;27.672;2023-08-30T04:37:45;97223.41;;;23.12;100.00
58373;BME280;44177;43.356;27.672;2023-08-30T04:40:11;97219.81;;;23.24;100.00
58373;BME280;44177;43.356;27.672;2023-08-30T04:42:37;97227.31;;;23.46;100.00
58373;BME280;44177;43.356;27.672;2023-08-30T04:45:03;97228.16;;;23.65;100.00
58373;BME280;44177;43.356;27.672;2023-08-30T04:47:29;97225.22;;;23.69;100.00
58373;BME280;44177;43.356;27.672;2023-08-30T04:49:56;97228.53;;;23.86;100.00
58373;BME280;44177;43.356;27.672;2023-08-30T04:52:21;97226.81;;;23.88;100.00
58373;BME280;44177;43.356;27.672;2023-08-30T04:54:47;97228.22;;;23.93;100.00
58373;BME280;44177;43.356;27.672;2023-08-30T04:57:14;97231.72;;;24.06;100.00
58373;BME280;44177;43.356;27.672;2023-08-30T04:59:42;97221.97;;;24.20;99.45
58373;BME280;44177;43.356;27.672;2023-08-30T05:02:07;97223.06;;;24.23;98.15
58373;BME280;44177;43.356;27.672;2023-08-30T05:04:33;97221.50;;;24.22;98.94
58373;BME280;44177;43.356;27.672;2023-08-30T05:06:58;97207.72;;;24.27;97.86
58373;BME280;44177;43.356;27.672;2023-08-30T05:09:24;97218.28;;;24.42;97.62
58373;BME280;44177;43.356;27.672;2023-08-30T05:11:53;97222.91;;;24.54;96.50
58373;BME280;44177;43.356;27.672;2023-08-30T05:14:19;97223.84;;;24.60;95.14
58373;BME280;44177;43.356;27.672;2023-08-30T05:16:45;97225.09;;;24.69;94.69
58373;BME280;44177;43.356;27.672;2023-08-30T05:19:10;97224.78;;;24.57;94.30
58373;BME280;44177;43.356;27.672;2023-08-30T05:21:36;97225.09;;;24.78;93.54
58373;BME280;44177;43.356;27.672;2023-08-30T05:24:02;97224.50;;;24.74;92.41
58373;BME280;44177;43.356;27.672;2023-08-30T05:26:27;97223.06;;;24.88;91.65
58373;BME280;44177;43.356;27.672;2023-08-30T05:28:53;97221.34;;;25.00;90.59
58373;BME280;44177;43.356;27.672;2023-08-30T05:31:18;97228.44;;;25.19;89.93
58373;BME280;44177;43.356;27.672;2023-08-30T05:33:44;97229.38;;;25.16;89.67
58373;BME280;44177;43.356;27.672;2023-08-30T05:36:09;97224.06;;;25.28;88.22
58373;BME280;44177;43.356;27.672;2023-08-30T05:38:35;97228.34;;;25.47;87.78
58373;BME280;44177;43.356;27.672;2023-08-30T05:41:00;97232.88;;;25.78;86.28
58373;BME280;44177;43.356;27.672;2023-08-30T05:43:25;97222.78;;;25.81;83.36
58373;BME280;44177;43.356;27.672;2023-08-30T05:45:51;97232.91;;;26.02;82.48
58373;BME280;44177;43.356;27.672;2023-08-30T05:48:16;97234.41;;;26.13;80.56
58373;BME280;44177;43.356;27.672;2023-08-30T05:50:42;97239.06;;;26.16;78.85
58373;BME280;44177;43.356;27.672;2023-08-30T05:53:07;97236.16;;;26.35;77.21
58373;BME280;44177;43.356;27.672;2023-08-30T05:55:33;97234.53;;;26.43;76.43
58373;BME280;44177;43.356;27.672;2023-08-30T05:57:58;97211.00;;;26.35;77.40
58373;BME280;44177;43.356;27.672;2023-08-30T06:00:24;97241.88;;;26.55;76.84
58373;BME280;44177;43.356;27.672;2023-08-30T06:02:51;97239.06;;;26.79;76.94
58373;BME280;44177;43.356;27.672;2023-08-30T06:05:17;97237.59;;;26.69;76.09
58373;BME280;44177;43.356;27.672;2023-08-30T06:07:43;97245.63;;;26.91;75.19
58373;BME280;44177;43.356;27.672;2023-08-30T06:10:09;97237.25;;;26.91;74.80
58373;BME280;44177;43.356;27.672;2023-08-30T06:12:34;97238.47;;;26.75;75.76
58373;BME280;44177;43.356;27.672;2023-08-30T06:15:00;97237.69;;;26.75;74.80
58373;BME280;44177;43.356;27.672;2023-08-30T06:17:25;97248.09;;;26.74;75.08
58373;BME280;44177;43.356;27.672;2023-08-30T06:19:50;97251.06;;;27.10;72.30
58373;BME280;44177;43.356;27.672;2023-08-30T06:22:17;97240.22;;;27.63;70.79
58373;BME280;44177;43.356;27.672;2023-08-30T06:24:42;97245.63;;;28.17;68.43
58373;BME280;44177;43.356;27.672;2023-08-30T06:27:08;97241.53;;;28.39;66.50
58373;BME280;44177;43.356;27.672;2023-08-30T06:29:33;97234.38;;;28.58;64.45
58373;BME280;44177;43.356;27.672;2023-08-30T06:31:59;97248.84;;;28.72;63.84
58373;BME280;44177;43.356;27.672;2023-08-30T06:34:24;97242.31;;;29.07;63.50
58373;BME280;44177;43.356;27.672;2023-08-30T06:36:50;97248.69;;;29.07;62.42
58373;BME280;44177;43.356;27.672;2023-08-30T06:39:17;97243.63;;;28.85;64.09
58373;BME280;44177;43.356;27.672;2023-08-30T06:41:42;97254.22;;;28.96;60.51
58373;BME280;44177;43.356;27.672;2023-08-30T06:44:08;97237.00;;;29.41;60.48
58373;BME280;44177;43.356;27.672;2023-08-30T06:46:33;97246.69;;;29.72;59.75
58373;BME280;44177;43.356;27.672;2023-08-30T06:48:59;97243.72;;;29.49;59.61
58373;BME280;44177;43.356;27.672;2023-08-30T06:51:24;97233.53;;;29.52;59.52
58373;BME280;44177;43.356;27.672;2023-08-30T06:53:50;97244.22;;;30.29;56.56
58373;BME280;44177;43.356;27.672;2023-08-30T06:56:16;97245.97;;;30.75;54.64
58373;BME280;44177;43.356;27.672;2023-08-30T06:58:41;97252.50;;;31.27;53.95
58373;BME280;44177;43.356;27.672;2023-08-30T07:01:07;97261.38;;;31.08;53.27
58373;BME280;44177;43.356;27.672;2023-08-30T07:03:32;97255.03;;;31.42;52.69
58373;BME280;44177;43.356;27.672;2023-08-30T07:05:58;97251.44;;;31.64;52.10
58373;BME280;44177;43.356;27.672;2023-08-30T07:08:23;97255.81;;;31.82;51.57
58373;BME280;44177;43.356;27.672;2023-08-30T07:10:48;97252.25;;;31.70;49.25
58373;BME280;44177;43.356;27.672;2023-08-30T07:13:14;97243.00;;;31.87;48.15
58373;BME280;44177;43.356;27.672;2023-08-30T07:15:41;97257.34;;;31.83;47.08
58373;BME280;44177;43.356;27.672;2023-08-30T07:18:09;97255.78;;;31.99;47.64
58373;BME280;44177;43.356;27.672;2023-08-30T07:20:35;97252.13;;;32.27;45.66
58373;BME280;44177;43.356;27.672;2023-08-30T07:23:04;97246.69;;;32.40;46.06
58373;BME280;44177;43.356;27.672;2023-08-30T07:25:30;97250.09;;;32.10;46.87
58373;BME280;44177;43.356;27.672;2023-08-30T07:27:59;97257.22;;;32.46;44.83
58373;BME280;44177;43.356;27.672;2023-08-30T07:30:25;97262.25;;;32.64;43.60
58373;BME280;44177;43.356;27.672;2023-08-30T07:32:51;97264.47;;;32.24;44.99
58373;BME280;44177;43.356;27.672;2023-08-30T07:35:16;97255.75;;;32.10;45.39
58373;BME280;44177;43.356;27.672;2023-08-30T07:37:42;97261.75;;;32.60;43.39
58373;BME280;44177;43.356;27.672;2023-08-30T07:40:08;97261.19;;;32.73;43.12
58373;BME280;44177;43.356;27.672;2023-08-30T07:42:33;97263.63;;;32.99;42.59
58373;BME280;44177;43.356;27.672;2023-08-30T07:44:59;97258.53;;;32.92;41.87
58373;BME280;44177;43.356;27.672;2023-08-30T07:47:24;97254.84;;;33.09;42.46
58373;BME280;44177;43.356;27.672;2023-08-30T07:49:50;97251.38;;;33.63;41.80
58373;BME280;44177;43.356;27.672;2023-08-30T07:52:15;97252.81;;;34.00;39.93
58373;BME280;44177;43.356;27.672;2023-08-30T07:54:41;97244.59;;;34.03;38.74
58373;BME280;44177;43.356;27.672;2023-08-30T07:57:06;97260.38;;;33.92;40.28
58373;BME280;44177;43.356;27.672;2023-08-30T07:59:33;97248.03;;;33.34;40.53
58373;BME280;44177;43.356;27.672;2023-08-30T08:01:59;97253.91;;;33.31;40.97
58373;BME280;44177;43.356;27.672;2023-08-30T08:04:25;97239.50;;;32.98;41.44
58373;BME280;44177;43.356;27.672;2023-08-30T08:06:50;97234.75;;;33.79;40.30
58373;BME280;44177;43.356;27.672;2023-08-30T08:09:17;97241.47;;;33.76;39.20
58373;BME280;44177;43.356;27.672;2023-08-30T08:11:42;97229.81;;;34.35;38.82
58373;BME280;44177;43.356;27.672;2023-08-30T08:14:11;97230.53;;;34.79;37.66
58373;BME280;44177;43.356;27.672;2023-08-30T08:16:37;97231.44;;;34.87;37.22
58373;BME280;44177;43.356;27.672;2023-08-30T08:19:03;97241.13;;;34.98;36.78
58373;BME280;44177;43.356;27.672;2023-08-30T08:21:28;97233.91;;;35.48;36.11
58373;BME280;44177;43.356;27.672;2023-08-30T08:23:54;97240.53;;;35.97;34.90
58373;BME280;44177;43.356;27.672;2023-08-30T08:26:19;97231.75;;;35.03;36.57
58373;BME280;44177;43.356;27.672;2023-08-30T08:28:45;97226.84;;;35.22;37.16
58373;BME280;44177;43.356;27.672;2023-08-30T08:31:10;97235.91;;;35.67;35.89
58373;BME280;44177;43.356;27.672;2023-08-30T08:33:36;97240.22;;;34.89;37.18
58373;BME280;44177;43.356;27.672;2023-08-30T08:36:01;97233.34;;;34.41;37.38
58373;BME280;44177;43.356;27.672;2023-08-30T08:38:27;97226.81;;;34.27;37.83
58373;BME280;44177;43.356;27.672;2023-08-30T08:41:02;97231.34;;;34.36;37.87
58373;BME280;44177;43.356;27.672;2023-08-30T08:43:29;97229.25;;;34.61;36.75
58373;BME280;44177;43.356;27.672;2023-08-30T08:45:59;97226.63;;;35.34;36.01
58373;BME280;44177;43.356;27.672;2023-08-30T08:48:26;97230.09;;;35.26;36.00
58373;BME280;44177;43.356;27.672;2023-08-30T08:50:54;97230.56;;;35.31;35.74
58373;BME280;44177;43.356;27.672;2023-08-30T08:53:20;97228.81;;;35.28;36.43
58373;BME280;44177;43.356;27.672;2023-08-30T08:55:47;97224.47;;;35.86;34.56
58373;BME280;44177;43.356;27.672;2023-08-30T08:58:14;97230.19;;;36.13;34.15
58373;BME280;44177;43.356;27.672;2023-08-30T09:00:42;97227.47;;;36.34;33.87
58373;BME280;44177;43.356;27.672;2023-08-30T09:03:08;97231.41;;;35.25;32.94
58373;BME280;44177;43.356;27.672;2023-08-30T09:05:37;97235.28;;;35.09;35.14
58373;BME280;44177;43.356;27.672;2023-08-30T09:08:04;97196.63;;;35.57;34.77
58373;BME280;44177;43.356;27.672;2023-08-30T09:10:31;97225.16;;;36.32;33.04
58373;BME280;44177;43.356;27.672;2023-08-30T09:12:57;97220.03;;;36.79;32.51
58373;BME280;44177;43.356;27.672;2023-08-30T09:15:33;97193.78;;;36.65;32.77
58373;BME280;44177;43.356;27.672;2023-08-30T09:17:59;97225.00;;;35.25;33.99
58373;BME280;44177;43.356;27.672;2023-08-30T09:20:25;97215.81;;;35.51;34.75
58373;BME280;44177;43.356;27.672;2023-08-30T09:22:51;97224.94;;;36.03;34.62
58373;BME280;44177;43.356;27.672;2023-08-30T09:25:24;97211.28;;;36.56;33.55
58373;BME280;44177;43.356;27.672;2023-08-30T09:27:50;97207.09;;;36.70;32.18
58373;BME280;44177;43.356;27.672;2023-08-30T09:30:21;97212.53;;;36.81;31.24
58373;BME280;44177;43.356;27.672;2023-08-30T09:32:47;97214.03;;;37.17;32.64
58373;BME280;44177;43.356;27.672;2023-08-30T09:35:12;97206.53;;;37.06;33.20
58373;BME280;44177;43.356;27.672;2023-08-30T09:37:38;97214.44;;;37.85;31.65
58373;BME280;44177;43.356;27.672;2023-08-30T09:40:04;97205.75;;;38.27;29.74
58373;BME280;44177;43.356;27.672;2023-08-30T09:42:31;97203.50;;;37.97;31.09
58373;BME280;44177;43.356;27.672;2023-08-30T09:44:56;97199.53;;;38.00;31.57
58373;BME280;44177;43.356;27.672;2023-08-30T09:47:24;97201.06;;;38.01;30.50
58373;BME280;44177;43.356;27.672;2023-08-30T09:49:51;97201.91;;;36.20;32.45
58373;BME280;44177;43.356;27.672;2023-08-30T09:52:22;97192.94;;;36.43;33.52
58373;BME280;44177;43.356;27.672;2023-08-30T09:54:48;97197.25;;;36.71;33.25
58373;BME280;44177;43.356;27.672;2023-08-30T09:57:15;97191.47;;;36.98;33.88
58373;BME280;44177;43.356;27.672;2023-08-30T09:59:42;97204.97;;;36.09;34.90
58373;BME280;44177;43.356;27.672;2023-08-30T10:02:08;97212.19;;;36.24;34.77
58373;BME280;44177;43.356;27.672;2023-08-30T10:04:35;97203.22;;;35.79;34.32
58373;BME280;44177;43.356;27.672;2023-08-30T10:07:03;97204.75;;;36.20;34.15
58373;BME280;44177;43.356;27.672;2023-08-30T10:09:30;97198.56;;;36.70;33.19
58373;BME280;44177;43.356;27.672;2023-08-30T10:11:57;97198.63;;;36.03;35.25
58373;BME280;44177;43.356;27.672;2023-08-30T10:14:23;97201.94;;;35.94;34.86
58373;BME280;44177;43.356;27.672;2023-08-30T10:16:49;97200.56;;;35.81;34.32
58373;BME280;44177;43.356;27.672;2023-08-30T10:19:25;97198.84;;;34.61;35.60
58373;BME280;44177;43.356;27.672;2023-08-30T10:24:22;97202.56;;;34.31;36.80
58373;BME280;44177;43.356;27.672;2023-08-30T10:26:49;97203.56;;;33.90;37.17
58373;BME280;44177;43.356;27.672;2023-08-30T10:29:16;97166.34;;;33.56;38.30
58373;BME280;44177;43.356;27.672;2023-08-30T10:31:42;97195.94;;;33.79;39.68
58373;BME280;44177;43.356;27.672;2023-08-30T10:34:15;97184.19;;;34.44;38.20
58373;BME280;44177;43.356;27.672;2023-08-30T10:36:43;97193.03;;;34.73;36.25
58373;BME280;44177;43.356;27.672;2023-08-30T10:39:12;97188.66;;;34.33;38.49
58373;BME280;44177;43.356;27.672;2023-08-30T10:41:54;97185.72;;;34.64;37.02
58373;BME280;44177;43.356;27.672;2023-08-30T10:44:22;97172.63;;;34.42;37.99
58373;BME280;44177;43.356;27.672;2023-08-30T10:46:54;97189.38;;;34.59;37.79
58373;BME280;44177;43.356;27.672;2023-08-30T10:49:21;97180.38;;;35.12;37.17
58373;BME280;44177;43.356;27.672;2023-08-30T10:51:56;97175.88;;;35.49;36.44
58373;BME280;44177;43.356;27.672;2023-08-30T10:54:36;97163.34;;;36.52;35.14
58373;BME280;44177;43.356;27.672;2023-08-30T10:57:03;97166.81;;;37.14;32.75
58373;BME280;44177;43.356;27.672;2023-08-30T10:59:29;97152.81;;;36.60;32.89
58373;BME280;44177;43.356;27.672;2023-08-30T11:02:00;97177.97;;;36.91;32.48
58373;BME280;44177;43.356;27.672;2023-08-30T11:04:26;97179.19;;;36.47;34.10
58373;BME280;44177;43.356;27.672;2023-08-30T11:06:52;97174.88;;;37.02;33.22
58373;BME280;44177;43.356;27.672;2023-08-30T11:09:22;97158.91;;;36.99;34.03
58373;BME280;44177;43.356;27.672;2023-08-30T11:11:48;97163.88;;;37.41;33.56
58373;BME280;44177;43.356;27.672;2023-08-30T11:14:15;97163.91;;;37.06;34.17
58373;BME280;44177;43.356;27.672;2023-08-30T11:16:40;97160.88;;;37.75;33.49
58373;BME280;44177;43.356;27.672;2023-08-30T11:19:08;97161.78;;;37.70;33.00
58373;BME280;44177;43.356;27.672;2023-08-30T11:21:36;97144.34;;;37.74;32.88
58373;BME280;44177;43.356;27.672;2023-08-30T11:24:06;97147.50;;;37.63;33.09
58373;BME280;44177;43.356;27.672;2023-08-30T11:26:32;97148.19;;;37.76;32.65
58373;BME280;44177;43.356;27.672;2023-08-30T11:29:04;97123.03;;;37.59;32.08
58373;BME280;44177;43.356;27.672;2023-08-30T11:31:29;97142.47;;;37.76;31.55
58373;BME280;44177;43.356;27.672;2023-08-30T11:33:56;97085.97;;;37.23;31.89
58373;BME280;44177;43.356;27.672;2023-08-30T11:36:23;97139.22;;;37.43;31.68
58373;BME280;44177;43.356;27.672;2023-08-30T11:38:49;97140.63;;;37.29;31.20
58373;BME280;44177;43.356;27.672;2023-08-30T11:41:15;97136.34;;;36.80;32.79
58373;BME280;44177;43.356;27.672;2023-08-30T11:43:41;97137.50;;;36.98;32.50
58373;BME280;44177;43.356;27.672;2023-08-30T11:46:10;97140.88;;;37.60;30.50
58373;BME280;44177;43.356;27.672;2023-08-30T11:48:38;97134.22;;;37.36;32.96
58373;BME280;44177;43.356;27.672;2023-08-30T11:51:05;97109.59;;;36.75;33.67
58373;BME280;44177;43.356;27.672;2023-08-30T11:53:31;97120.25;;;36.96;33.16
58373;BME280;44177;43.356;27.672;2023-08-30T11:55:57;97121.81;;;37.26;33.23
58373;BME280;44177;43.356;27.672;2023-08-30T11:58:22;97108.03;;;37.88;31.38
58373;BME280;44177;43.356;27.672;2023-08-30T12:00:52;97118.41;;;37.49;31.71
58373;BME280;44177;43.356;27.672;2023-08-30T12:03:19;97113.31;;;37.55;32.25
58373;BME280;44177;43.356;27.672;2023-08-30T12:05:49;97101.09;;;38.04;31.41
58373;BME280;44177;43.356;27.672;2023-08-30T12:10:45;97103.25;;;37.54;30.10
58373;BME280;44177;43.356;27.672;2023-08-30T12:15:47;97112.81;;;37.64;31.23
58373;BME280;44177;43.356;27.672;2023-08-30T12:18:13;97101.25;;;36.91;32.85
58373;BME280;44177;43.356;27.672;2023-08-30T12:20:38;97107.09;;;36.37;33.53
58373;BME280;44177;43.356;27.672;2023-08-30T12:23:03;97107.25;;;36.87;32.39
58373;BME280;44177;43.356;27.672;2023-08-30T12:25:29;97099.06;;;37.47;32.11
58373;BME280;44177;43.356;27.672;2023-08-30T12:27:56;97101.50;;;37.22;32.52
58373;BME280;44177;43.356;27.672;2023-08-30T12:30:21;97093.03;;;36.45;32.86
58373;BME280;44177;43.356;27.672;2023-08-30T12:32:48;97089.28;;;36.15;32.39
58373;BME280;44177;43.356;27.672;2023-08-30T12:35:13;97083.81;;;36.17;32.49
58373;BME280;44177;43.356;27.672;2023-08-30T12:37:39;97065.72;;;35.80;34.32
58373;BME280;44177;43.356;27.672;2023-08-30T12:40:05;97094.97;;;35.75;34.82
58373;BME280;44177;43.356;27.672;2023-08-30T12:42:32;97086.91;;;35.66;33.75
58373;BME280;44177;43.356;27.672;2023-08-30T12:44:57;97089.53;;;35.91;34.77
58373;BME280;44177;43.356;27.672;2023-08-30T12:47:23;97074.50;;;36.30;32.67
58373;BME280;44177;43.356;27.672;2023-08-30T12:49:48;97080.56;;;36.00;33.01
58373;BME280;44177;43.356;27.672;2023-08-30T12:52:13;97089.91;;;36.22;33.03
58373;BME280;44177;43.356;27.672;2023-08-30T12:54:40;97077.81;;;36.21;33.20
58373;BME280;44177;43.356;27.672;2023-08-30T12:57:05;97085.06;;;36.30;34.84
58373;BME280;44177;43.356;27.672;2023-08-30T12:59:31;97079.41;;;36.64;33.27
58373;BME280;44177;43.356;27.672;2023-08-30T13:01:57;97083.47;;;36.21;34.48